EKCH/CPH METAR and TAF weather

Enter ICAO airport designator
Station Type Date Time Source
EKCH METAR 2021/09/25 02:50 UTC NOAA

EKCH 250250Z AUTO 26010KT 9999 NCD 15/12 Q1007 NOSIG


Station Type Date Time Source
EKCH Decoded METAR 2021/09/25 02:50 UTC NOAA

Koebenhavn / Kastrup, Denmark (EKCH) 55-37N 012-39E 5M
Sep 24, 2021 - 10:50 PM EDT / 2021.09.25 0250 UTC
Wind: from the W (260 degrees) at 12 MPH (10 KT):0
Visibility: greater than 7 mile(s):0
Temperature: 59 F (15 C)
Dew Point: 53 F (12 C)
Relative Humidity: 82%
Pressure (altimeter): 29.74 in. Hg (1007 hPa)
ob: EKCH 250250Z AUTO 26010KT 9999 NCD 15/12 Q1007 NOSIG
cycle: 3

Station Type Date Time Source
EKCH TAF 2021/09/24 18:31 UTC NOAA

TAF EKCH 241712Z 2418/2518 25013KT 9999 BKN020
TEMPO 2418/2502 4000 RADZ BKN008

Example: see airport list